sensor_id;sensor_type;location;lat;lon;timestamp;P1;durP1;ratioP1;P2;durP2;ratioP2
50821;SDS011;36794;51.212;6.980;2024-01-15T00:00:02;62.07;;;22.60;;
50821;SDS011;36794;51.212;6.980;2024-01-15T00:02:29;65.97;;;24.73;;
50821;SDS011;36794;51.212;6.980;2024-01-15T00:04:55;64.00;;;23.07;;
50821;SDS011;36794;51.212;6.980;2024-01-15T00:07:21;67.87;;;23.27;;
50821;SDS011;36794;51.212;6.980;2024-01-15T00:09:47;70.20;;;24.23;;
50821;SDS011;36794;51.212;6.980;2024-01-15T00:12:13;71.97;;;25.33;;
50821;SDS011;36794;51.212;6.980;2024-01-15T00:14:39;64.57;;;23.87;;
50821;SDS011;36794;51.212;6.980;2024-01-15T00:17:05;60.10;;;22.67;;
50821;SDS011;36794;51.212;6.980;2024-01-15T00:19:31;66.77;;;24.37;;
50821;SDS011;36794;51.212;6.980;2024-01-15T00:21:57;64.47;;;24.50;;
50821;SDS011;36794;51.212;6.980;2024-01-15T00:24:24;66.27;;;24.33;;
50821;SDS011;36794;51.212;6.980;2024-01-15T00:26:50;69.80;;;23.93;;
50821;SDS011;36794;51.212;6.980;2024-01-15T00:29:16;68.07;;;24.03;;
50821;SDS011;36794;51.212;6.980;2024-01-15T00:31:44;66.40;;;23.60;;
50821;SDS011;36794;51.212;6.980;2024-01-15T00:34:10;62.33;;;23.80;;
50821;SDS011;36794;51.212;6.980;2024-01-15T00:36:36;76.83;;;26.47;;
50821;SDS011;36794;51.212;6.980;2024-01-15T00:39:02;70.50;;;24.80;;
50821;SDS011;36794;51.212;6.980;2024-01-15T00:41:30;68.53;;;23.97;;
50821;SDS011;36794;51.212;6.980;2024-01-15T00:43:56;67.87;;;24.17;;
50821;SDS011;36794;51.212;6.980;2024-01-15T00:46:22;69.80;;;25.27;;
50821;SDS011;36794;51.212;6.980;2024-01-15T00:48:48;68.83;;;23.60;;
50821;SDS011;36794;51.212;6.980;2024-01-15T00:51:14;61.80;;;22.93;;
50821;SDS011;36794;51.212;6.980;2024-01-15T00:53:40;60.30;;;23.13;;
50821;SDS011;36794;51.212;6.980;2024-01-15T00:56:05;66.70;;;23.47;;
50821;SDS011;36794;51.212;6.980;2024-01-15T00:58:31;71.93;;;24.13;;
50821;SDS011;36794;51.212;6.980;2024-01-15T01:00:57;64.53;;;24.03;;
50821;SDS011;36794;51.212;6.980;2024-01-15T01:03:23;65.30;;;24.37;;
50821;SDS011;36794;51.212;6.980;2024-01-15T01:05:49;71.20;;;25.77;;
50821;SDS011;36794;51.212;6.980;2024-01-15T01:08:15;63.70;;;23.00;;
50821;SDS011;36794;51.212;6.980;2024-01-15T01:10:41;72.17;;;26.13;;
50821;SDS011;36794;51.212;6.980;2024-01-15T01:13:07;60.40;;;23.13;;
50821;SDS011;36794;51.212;6.980;2024-01-15T01:15:33;73.50;;;23.33;;
50821;SDS011;36794;51.212;6.980;2024-01-15T01:18:00;59.77;;;23.03;;
50821;SDS011;36794;51.212;6.980;2024-01-15T01:20:26;62.47;;;23.53;;
50821;SDS011;36794;51.212;6.980;2024-01-15T01:22:52;69.43;;;23.33;;
50821;SDS011;36794;51.212;6.980;2024-01-15T01:25:17;66.23;;;23.27;;
50821;SDS011;36794;51.212;6.980;2024-01-15T01:27:44;73.10;;;25.10;;
50821;SDS011;36794;51.212;6.980;2024-01-15T01:30:10;73.73;;;25.20;;
50821;SDS011;36794;51.212;6.980;2024-01-15T01:32:36;69.20;;;24.87;;
50821;SDS011;36794;51.212;6.980;2024-01-15T01:35:02;65.63;;;22.60;;
50821;SDS011;36794;51.212;6.980;2024-01-15T01:37:28;61.50;;;25.13;;
50821;SDS011;36794;51.212;6.980;2024-01-15T01:39:54;66.70;;;24.87;;
50821;SDS011;36794;51.212;6.980;2024-01-15T01:42:20;63.30;;;25.03;;
50821;SDS011;36794;51.212;6.980;2024-01-15T01:44:46;63.27;;;23.07;;
50821;SDS011;36794;51.212;6.980;2024-01-15T01:47:12;66.87;;;23.37;;
50821;SDS011;36794;51.212;6.980;2024-01-15T01:49:38;67.10;;;24.47;;
50821;SDS011;36794;51.212;6.980;2024-01-15T01:52:04;64.13;;;25.17;;
50821;SDS011;36794;51.212;6.980;2024-01-15T01:54:34;58.63;;;22.47;;
50821;SDS011;36794;51.212;6.980;2024-01-15T01:57:01;57.63;;;22.83;;
50821;SDS011;36794;51.212;6.980;2024-01-15T01:59:28;62.33;;;24.80;;
50821;SDS011;36794;51.212;6.980;2024-01-15T02:01:54;62.60;;;24.17;;
50821;SDS011;36794;51.212;6.980;2024-01-15T02:04:22;62.33;;;23.17;;
50821;SDS011;36794;51.212;6.980;2024-01-15T02:06:49;60.77;;;22.97;;
50821;SDS011;36794;51.212;6.980;2024-01-15T02:09:15;66.73;;;23.37;;
50821;SDS011;36794;51.212;6.980;2024-01-15T02:11:42;62.03;;;23.27;;
50821;SDS011;36794;51.212;6.980;2024-01-15T02:14:08;60.50;;;23.07;;
50821;SDS011;36794;51.212;6.980;2024-01-15T02:16:34;66.17;;;23.87;;
50821;SDS011;36794;51.212;6.980;2024-01-15T02:19:01;60.00;;;23.93;;
50821;SDS011;36794;51.212;6.980;2024-01-15T02:21:27;70.10;;;23.67;;
50821;SDS011;36794;51.212;6.980;2024-01-15T02:23:54;61.03;;;23.80;;
50821;SDS011;36794;51.212;6.980;2024-01-15T02:26:20;60.63;;;24.00;;
50821;SDS011;36794;51.212;6.980;2024-01-15T02:28:46;62.33;;;24.17;;
50821;SDS011;36794;51.212;6.980;2024-01-15T02:31:12;62.97;;;24.30;;
50821;SDS011;36794;51.212;6.980;2024-01-15T02:33:38;63.33;;;23.23;;
50821;SDS011;36794;51.212;6.980;2024-01-15T02:36:04;64.73;;;22.63;;
50821;SDS011;36794;51.212;6.980;2024-01-15T02:38:30;64.80;;;23.17;;
50821;SDS011;36794;51.212;6.980;2024-01-15T02:40:56;62.40;;;23.77;;
50821;SDS011;36794;51.212;6.980;2024-01-15T02:43:22;59.83;;;22.93;;
50821;SDS011;36794;51.212;6.980;2024-01-15T02:45:48;62.53;;;23.47;;
50821;SDS011;36794;51.212;6.980;2024-01-15T02:48:14;62.33;;;23.80;;
50821;SDS011;36794;51.212;6.980;2024-01-15T02:50:40;53.10;;;21.20;;
50821;SDS011;36794;51.212;6.980;2024-01-15T02:53:06;52.50;;;21.80;;
50821;SDS011;36794;51.212;6.980;2024-01-15T02:55:32;51.10;;;21.97;;
50821;SDS011;36794;51.212;6.980;2024-01-15T02:57:58;57.73;;;21.87;;
50821;SDS011;36794;51.212;6.980;2024-01-15T03:00:24;57.13;;;22.47;;
50821;SDS011;36794;51.212;6.980;2024-01-15T03:02:50;49.67;;;20.80;;
50821;SDS011;36794;51.212;6.980;2024-01-15T03:05:16;52.90;;;21.17;;
50821;SDS011;36794;51.212;6.980;2024-01-15T03:07:42;49.80;;;21.53;;
50821;SDS011;36794;51.212;6.980;2024-01-15T03:10:08;47.83;;;20.73;;
50821;SDS011;36794;51.212;6.980;2024-01-15T03:12:34;50.23;;;19.67;;
50821;SDS011;36794;51.212;6.980;2024-01-15T03:15:00;58.23;;;21.83;;
50821;SDS011;36794;51.212;6.980;2024-01-15T03:17:26;44.70;;;18.80;;
50821;SDS011;36794;51.212;6.980;2024-01-15T03:19:52;48.60;;;18.47;;
50821;SDS011;36794;51.212;6.980;2024-01-15T03:22:18;46.73;;;18.93;;
50821;SDS011;36794;51.212;6.980;2024-01-15T03:24:44;46.20;;;17.87;;
50821;SDS011;36794;51.212;6.980;2024-01-15T03:27:10;54.03;;;20.00;;
50821;SDS011;36794;51.212;6.980;2024-01-15T03:29:36;55.07;;;19.27;;
50821;SDS011;36794;51.212;6.980;2024-01-15T03:32:02;47.07;;;17.80;;
50821;SDS011;36794;51.212;6.980;2024-01-15T03:34:28;46.63;;;18.60;;
50821;SDS011;36794;51.212;6.980;2024-01-15T03:36:54;46.83;;;18.07;;
50821;SDS011;36794;51.212;6.980;2024-01-15T03:39:20;45.10;;;18.97;;
50821;SDS011;36794;51.212;6.980;2024-01-15T03:41:46;57.70;;;19.23;;
50821;SDS011;36794;51.212;6.980;2024-01-15T03:44:12;41.43;;;17.40;;
50821;SDS011;36794;51.212;6.980;2024-01-15T03:46:38;43.83;;;18.00;;
50821;SDS011;36794;51.212;6.980;2024-01-15T03:49:04;39.77;;;18.73;;
50821;SDS011;36794;51.212;6.980;2024-01-15T03:51:30;45.43;;;18.70;;
50821;SDS011;36794;51.212;6.980;2024-01-15T03:53:56;47.53;;;17.20;;
50821;SDS011;36794;51.212;6.980;2024-01-15T03:56:22;44.17;;;17.00;;
50821;SDS011;36794;51.212;6.980;2024-01-15T03:58:48;41.33;;;17.60;;
50821;SDS011;36794;51.212;6.980;2024-01-15T04:01:13;37.77;;;15.97;;
50821;SDS011;36794;51.212;6.980;2024-01-15T04:03:39;43.83;;;17.50;;
50821;SDS011;36794;51.212;6.980;2024-01-15T04:06:05;43.63;;;17.30;;
50821;SDS011;36794;51.212;6.980;2024-01-15T04:08:31;39.87;;;17.20;;
50821;SDS011;36794;51.212;6.980;2024-01-15T04:10:57;40.87;;;17.87;;
50821;SDS011;36794;51.212;6.980;2024-01-15T04:13:23;40.60;;;16.67;;
50821;SDS011;36794;51.212;6.980;2024-01-15T04:15:49;44.23;;;16.93;;
50821;SDS011;36794;51.212;6.980;2024-01-15T04:18:15;38.40;;;16.83;;
50821;SDS011;36794;51.212;6.980;2024-01-15T04:20:43;41.33;;;16.27;;
50821;SDS011;36794;51.212;6.980;2024-01-15T04:23:08;39.80;;;16.67;;
50821;SDS011;36794;51.212;6.980;2024-01-15T04:25:34;39.27;;;17.23;;
50821;SDS011;36794;51.212;6.980;2024-01-15T04:28:00;41.90;;;16.67;;
50821;SDS011;36794;51.212;6.980;2024-01-15T04:30:26;42.60;;;17.83;;
50821;SDS011;36794;51.212;6.980;2024-01-15T04:32:52;40.47;;;17.60;;
50821;SDS011;36794;51.212;6.980;2024-01-15T04:35:18;37.00;;;18.50;;
50821;SDS011;36794;51.212;6.980;2024-01-15T04:37:44;43.13;;;17.90;;
50821;SDS011;36794;51.212;6.980;2024-01-15T04:40:10;34.40;;;16.40;;
50821;SDS011;36794;51.212;6.980;2024-01-15T04:42:36;39.37;;;16.40;;
50821;SDS011;36794;51.212;6.980;2024-01-15T04:45:02;32.63;;;15.43;;
50821;SDS011;36794;51.212;6.980;2024-01-15T04:47:28;32.47;;;15.73;;
50821;SDS011;36794;51.212;6.980;2024-01-15T04:49:54;39.43;;;15.93;;
50821;SDS011;36794;51.212;6.980;2024-01-15T04:52:20;41.10;;;16.77;;
50821;SDS011;36794;51.212;6.980;2024-01-15T04:54:46;40.80;;;16.27;;
50821;SDS011;36794;51.212;6.980;2024-01-15T04:57:12;33.97;;;14.47;;
50821;SDS011;36794;51.212;6.980;2024-01-15T04:59:38;41.27;;;14.73;;
50821;SDS011;36794;51.212;6.980;2024-01-15T05:02:04;39.23;;;15.30;;
50821;SDS011;36794;51.212;6.980;2024-01-15T05:04:30;31.63;;;13.70;;
50821;SDS011;36794;51.212;6.980;2024-01-15T05:06:57;34.10;;;15.40;;
50821;SDS011;36794;51.212;6.980;2024-01-15T05:09:23;30.73;;;14.67;;
50821;SDS011;36794;51.212;6.980;2024-01-15T05:11:49;34.00;;;15.37;;
50821;SDS011;36794;51.212;6.980;2024-01-15T05:14:15;34.20;;;15.50;;
50821;SDS011;36794;51.212;6.980;2024-01-15T05:16:48;31.50;;;13.83;;
50821;SDS011;36794;51.212;6.980;2024-01-15T05:19:14;29.63;;;14.27;;
50821;SDS011;36794;51.212;6.980;2024-01-15T05:21:40;33.27;;;13.60;;
50821;SDS011;36794;51.212;6.980;2024-01-15T05:24:07;37.37;;;15.27;;
50821;SDS011;36794;51.212;6.980;2024-01-15T05:26:33;34.63;;;14.37;;
50821;SDS011;36794;51.212;6.980;2024-01-15T05:28:59;28.83;;;13.40;;
50821;SDS011;36794;51.212;6.980;2024-01-15T05:31:25;30.40;;;13.17;;
50821;SDS011;36794;51.212;6.980;2024-01-15T05:33:51;37.50;;;13.60;;
50821;SDS011;36794;51.212;6.980;2024-01-15T05:36:18;32.63;;;13.33;;
50821;SDS011;36794;51.212;6.980;2024-01-15T05:38:44;32.90;;;14.00;;
50821;SDS011;36794;51.212;6.980;2024-01-15T05:41:10;27.60;;;12.50;;
50821;SDS011;36794;51.212;6.980;2024-01-15T05:43:36;37.77;;;13.50;;
50821;SDS011;36794;51.212;6.980;2024-01-15T05:46:02;27.63;;;13.03;;
50821;SDS011;36794;51.212;6.980;2024-01-15T05:48:28;28.13;;;12.87;;
50821;SDS011;36794;51.212;6.980;2024-01-15T05:50:54;26.00;;;13.40;;
50821;SDS011;36794;51.212;6.980;2024-01-15T05:53:20;35.10;;;13.30;;
50821;SDS011;36794;51.212;6.980;2024-01-15T05:55:45;31.83;;;12.90;;
50821;SDS011;36794;51.212;6.980;2024-01-15T05:58:11;27.97;;;12.67;;
50821;SDS011;36794;51.212;6.980;2024-01-15T06:00:37;36.23;;;13.63;;
50821;SDS011;36794;51.212;6.980;2024-01-15T06:03:03;37.50;;;13.57;;
50821;SDS011;36794;51.212;6.980;2024-01-15T06:05:29;30.87;;;13.23;;
50821;SDS011;36794;51.212;6.980;2024-01-15T06:07:55;26.40;;;12.37;;
50821;SDS011;36794;51.212;6.980;2024-01-15T06:10:22;29.93;;;12.60;;
50821;SDS011;36794;51.212;6.980;2024-01-15T06:12:48;26.37;;;12.13;;
50821;SDS011;36794;51.212;6.980;2024-01-15T06:15:14;25.97;;;12.10;;
50821;SDS011;36794;51.212;6.980;2024-01-15T06:17:40;31.23;;;12.50;;
50821;SDS011;36794;51.212;6.980;2024-01-15T06:20:06;26.27;;;11.60;;
50821;SDS011;36794;51.212;6.980;2024-01-15T06:22:32;23.17;;;11.63;;
50821;SDS011;36794;51.212;6.980;2024-01-15T06:24:58;23.10;;;11.33;;
50821;SDS011;36794;51.212;6.980;2024-01-15T06:27:24;25.43;;;12.07;;
50821;SDS011;36794;51.212;6.980;2024-01-15T06:29:50;25.47;;;11.10;;
50821;SDS011;36794;51.212;6.980;2024-01-15T06:32:16;30.73;;;12.00;;
50821;SDS011;36794;51.212;6.980;2024-01-15T06:34:42;25.60;;;11.50;;
50821;SDS011;36794;51.212;6.980;2024-01-15T06:37:08;23.87;;;10.50;;
50821;SDS011;36794;51.212;6.980;2024-01-15T06:39:34;24.20;;;11.70;;
50821;SDS011;36794;51.212;6.980;2024-01-15T06:42:00;28.57;;;11.40;;
50821;SDS011;36794;51.212;6.980;2024-01-15T06:44:25;31.00;;;11.57;;
50821;SDS011;36794;51.212;6.980;2024-01-15T06:46:51;25.33;;;10.97;;
50821;SDS011;36794;51.212;6.980;2024-01-15T06:49:22;21.90;;;10.87;;
50821;SDS011;36794;51.212;6.980;2024-01-15T06:51:48;23.33;;;10.77;;
50821;SDS011;36794;51.212;6.980;2024-01-15T06:54:14;25.43;;;10.17;;
50821;SDS011;36794;51.212;6.980;2024-01-15T06:56:39;24.70;;;10.30;;
50821;SDS011;36794;51.212;6.980;2024-01-15T06:59:05;21.03;;;10.13;;
50821;SDS011;36794;51.212;6.980;2024-01-15T07:01:31;33.17;;;11.60;;
50821;SDS011;36794;51.212;6.980;2024-01-15T07:03:57;17.77;;;9.50;;
50821;SDS011;36794;51.212;6.980;2024-01-15T07:06:23;17.63;;;10.13;;
50821;SDS011;36794;51.212;6.980;2024-01-15T07:08:49;19.70;;;9.10;;
50821;SDS011;36794;51.212;6.980;2024-01-15T07:11:15;20.80;;;9.03;;
50821;SDS011;36794;51.212;6.980;2024-01-15T07:13:41;21.33;;;9.73;;
50821;SDS011;36794;51.212;6.980;2024-01-15T07:16:07;18.40;;;9.00;;
50821;SDS011;36794;51.212;6.980;2024-01-15T07:18:33;16.20;;;9.07;;
50821;SDS011;36794;51.212;6.980;2024-01-15T07:20:59;27.57;;;10.23;;
50821;SDS011;36794;51.212;6.980;2024-01-15T07:23:26;20.77;;;9.50;;
50821;SDS011;36794;51.212;6.980;2024-01-15T07:25:52;20.57;;;10.50;;
50821;SDS011;36794;51.212;6.980;2024-01-15T07:28:19;25.40;;;12.10;;
50821;SDS011;36794;51.212;6.980;2024-01-15T07:30:45;20.10;;;11.10;;
50821;SDS011;36794;51.212;6.980;2024-01-15T07:33:10;24.60;;;11.60;;
50821;SDS011;36794;51.212;6.980;2024-01-15T07:35:37;21.87;;;12.43;;
50821;SDS011;36794;51.212;6.980;2024-01-15T07:38:03;29.33;;;12.43;;
50821;SDS011;36794;51.212;6.980;2024-01-15T07:40:29;25.00;;;12.60;;
50821;SDS011;36794;51.212;6.980;2024-01-15T07:42:55;23.87;;;12.90;;
50821;SDS011;36794;51.212;6.980;2024-01-15T07:45:21;31.10;;;14.67;;
50821;SDS011;36794;51.212;6.980;2024-01-15T07:47:47;30.90;;;14.27;;
50821;SDS011;36794;51.212;6.980;2024-01-15T07:50:14;32.70;;;14.30;;
50821;SDS011;36794;51.212;6.980;2024-01-15T07:52:40;30.70;;;13.70;;
50821;SDS011;36794;51.212;6.980;2024-01-15T07:55:07;29.53;;;14.43;;
50821;SDS011;36794;51.212;6.980;2024-01-15T07:57:33;33.07;;;14.40;;
50821;SDS011;36794;51.212;6.980;2024-01-15T07:59:59;32.53;;;15.47;;
50821;SDS011;36794;51.212;6.980;2024-01-15T08:02:26;30.30;;;14.00;;
50821;SDS011;36794;51.212;6.980;2024-01-15T08:04:52;30.57;;;13.93;;
50821;SDS011;36794;51.212;6.980;2024-01-15T08:07:18;26.60;;;13.60;;
50821;SDS011;36794;51.212;6.980;2024-01-15T08:09:44;35.53;;;15.30;;
50821;SDS011;36794;51.212;6.980;2024-01-15T08:12:12;32.43;;;14.33;;
50821;SDS011;36794;51.212;6.980;2024-01-15T08:14:38;27.90;;;14.50;;
50821;SDS011;36794;51.212;6.980;2024-01-15T08:17:04;25.60;;;13.67;;
50821;SDS011;36794;51.212;6.980;2024-01-15T08:19:30;25.50;;;14.27;;
50821;SDS011;36794;51.212;6.980;2024-01-15T08:21:56;28.07;;;14.47;;
50821;SDS011;36794;51.212;6.980;2024-01-15T08:24:22;32.27;;;15.40;;
50821;SDS011;36794;51.212;6.980;2024-01-15T08:26:48;35.77;;;16.20;;
50821;SDS011;36794;51.212;6.980;2024-01-15T08:29:14;32.53;;;14.83;;
50821;SDS011;36794;51.212;6.980;2024-01-15T08:31:41;30.30;;;15.73;;
50821;SDS011;36794;51.212;6.980;2024-01-15T08:34:07;31.90;;;15.67;;
50821;SDS011;36794;51.212;6.980;2024-01-15T08:36:33;33.03;;;16.77;;
50821;SDS011;36794;51.212;6.980;2024-01-15T08:39:01;33.93;;;16.17;;
50821;SDS011;36794;51.212;6.980;2024-01-15T08:41:29;35.70;;;17.50;;
50821;SDS011;36794;51.212;6.980;2024-01-15T08:43:54;42.60;;;17.83;;
50821;SDS011;36794;51.212;6.980;2024-01-15T08:46:20;37.53;;;17.57;;
50821;SDS011;36794;51.212;6.980;2024-01-15T08:48:47;34.93;;;16.97;;
50821;SDS011;36794;51.212;6.980;2024-01-15T08:51:13;38.20;;;18.07;;
50821;SDS011;36794;51.212;6.980;2024-01-15T08:53:39;34.77;;;16.37;;
50821;SDS011;36794;51.212;6.980;2024-01-15T08:56:05;36.10;;;15.83;;
50821;SDS011;36794;51.212;6.980;2024-01-15T08:58:31;32.50;;;15.90;;
50821;SDS011;36794;51.212;6.980;2024-01-15T09:00:57;33.47;;;15.37;;
50821;SDS011;36794;51.212;6.980;2024-01-15T09:03:23;33.87;;;15.53;;
50821;SDS011;36794;51.212;6.980;2024-01-15T09:05:49;31.30;;;16.13;;
50821;SDS011;36794;51.212;6.980;2024-01-15T09:08:15;31.20;;;15.37;;
50821;SDS011;36794;51.212;6.980;2024-01-15T09:10:41;33.13;;;15.50;;
50821;SDS011;36794;51.212;6.980;2024-01-15T09:13:07;31.50;;;15.97;;
50821;SDS011;36794;51.212;6.980;2024-01-15T09:15:33;31.43;;;14.73;;
50821;SDS011;36794;51.212;6.980;2024-01-15T09:17:59;33.17;;;16.33;;
50821;SDS011;36794;51.212;6.980;2024-01-15T09:20:27;34.67;;;14.70;;
50821;SDS011;36794;51.212;6.980;2024-01-15T09:22:53;36.23;;;15.33;;
50821;SDS011;36794;51.212;6.980;2024-01-15T09:25:19;27.10;;;15.27;;
50821;SDS011;36794;51.212;6.980;2024-01-15T09:27:45;29.97;;;14.73;;
50821;SDS011;36794;51.212;6.980;2024-01-15T09:30:11;30.40;;;15.60;;
50821;SDS011;36794;51.212;6.980;2024-01-15T09:32:37;27.67;;;14.47;;
50821;SDS011;36794;51.212;6.980;2024-01-15T09:35:03;29.07;;;14.53;;
50821;SDS011;36794;51.212;6.980;2024-01-15T09:37:29;24.20;;;13.97;;
50821;SDS011;36794;51.212;6.980;2024-01-15T09:39:55;27.27;;;14.23;;
50821;SDS011;36794;51.212;6.980;2024-01-15T09:42:22;29.13;;;14.03;;
50821;SDS011;36794;51.212;6.980;2024-01-15T09:44:49;24.63;;;12.87;;
50821;SDS011;36794;51.212;6.980;2024-01-15T09:47:15;25.00;;;13.70;;
50821;SDS011;36794;51.212;6.980;2024-01-15T09:49:42;20.30;;;12.83;;
50821;SDS011;36794;51.212;6.980;2024-01-15T09:52:08;20.60;;;13.07;;
50821;SDS011;36794;51.212;6.980;2024-01-15T09:54:35;24.63;;;13.20;;
50821;SDS011;36794;51.212;6.980;2024-01-15T09:57:01;24.00;;;13.17;;
50821;SDS011;36794;51.212;6.980;2024-01-15T09:59:27;25.47;;;13.67;;
50821;SDS011;36794;51.212;6.980;2024-01-15T10:01:53;24.63;;;13.37;;
50821;SDS011;36794;51.212;6.980;2024-01-15T10:04:21;25.23;;;13.53;;
50821;SDS011;36794;51.212;6.980;2024-01-15T10:06:48;20.97;;;12.60;;
50821;SDS011;36794;51.212;6.980;2024-01-15T10:09:16;23.37;;;12.90;;
50821;SDS011;36794;51.212;6.980;2024-01-15T10:11:43;20.97;;;11.60;;
50821;SDS011;36794;51.212;6.980;2024-01-15T10:14:10;18.33;;;11.20;;
50821;SDS011;36794;51.212;6.980;2024-01-15T10:16:39;20.80;;;11.70;;
50821;SDS011;36794;51.212;6.980;2024-01-15T10:19:05;19.70;;;11.30;;
50821;SDS011;36794;51.212;6.980;2024-01-15T10:21:32;15.43;;;10.10;;
50821;SDS011;36794;51.212;6.980;2024-01-15T10:24:01;19.00;;;10.57;;
50821;SDS011;36794;51.212;6.980;2024-01-15T10:26:30;18.60;;;11.10;;
50821;SDS011;36794;51.212;6.980;2024-01-15T10:29:00;19.20;;;10.63;;
50821;SDS011;36794;51.212;6.980;2024-01-15T10:31:26;17.03;;;10.27;;
50821;SDS011;36794;51.212;6.980;2024-01-15T10:33:53;18.87;;;9.30;;
50821;SDS011;36794;51.212;6.980;2024-01-15T10:36:19;16.10;;;9.20;;
50821;SDS011;36794;51.212;6.980;2024-01-15T10:38:46;15.13;;;8.60;;
50821;SDS011;36794;51.212;6.980;2024-01-15T10:41:12;12.87;;;8.23;;
50821;SDS011;36794;51.212;6.980;2024-01-15T10:43:38;14.67;;;8.83;;
50821;SDS011;36794;51.212;6.980;2024-01-15T10:46:06;15.77;;;9.20;;
50821;SDS011;36794;51.212;6.980;2024-01-15T10:48:33;16.30;;;8.87;;
50821;SDS011;36794;51.212;6.980;2024-01-15T10:51:00;15.37;;;8.33;;
50821;SDS011;36794;51.212;6.980;2024-01-15T10:53:33;11.47;;;8.37;;
50821;SDS011;36794;51.212;6.980;2024-01-15T10:56:00;12.30;;;7.33;;
50821;SDS011;36794;51.212;6.980;2024-01-15T10:58:26;12.97;;;6.73;;
50821;SDS011;36794;51.212;6.980;2024-01-15T11:00:55;10.73;;;6.67;;
50821;SDS011;36794;51.212;6.980;2024-01-15T11:03:21;13.63;;;6.67;;
50821;SDS011;36794;51.212;6.980;2024-01-15T11:05:47;13.20;;;6.80;;
50821;SDS011;36794;51.212;6.980;2024-01-15T11:08:16;11.20;;;7.10;;
50821;SDS011;36794;51.212;6.980;2024-01-15T11:10:44;13.70;;;7.67;;
50821;SDS011;36794;51.212;6.980;2024-01-15T11:13:18;12.40;;;7.27;;
50821;SDS011;36794;51.212;6.980;2024-01-15T11:16:01;14.57;;;7.63;;
50821;SDS011;36794;51.212;6.980;2024-01-15T11:18:31;15.13;;;7.73;;
50821;SDS011;36794;51.212;6.980;2024-01-15T11:23:46;11.47;;;7.50;;
50821;SDS011;36794;51.212;6.980;2024-01-15T11:26:28;10.67;;;6.90;;
50821;SDS011;36794;51.212;6.980;2024-01-15T11:28:54;13.33;;;6.27;;
50821;SDS011;36794;51.212;6.980;2024-01-15T11:34:02;12.03;;;5.40;;
50821;SDS011;36794;51.212;6.980;2024-01-15T11:42:00;11.95;;;4.80;;
50821;SDS011;36794;51.212;6.980;2024-01-15T11:44:27;9.20;;;4.30;;
50821;SDS011;36794;51.212;6.980;2024-01-15T11:46:59;6.37;;;3.60;;
50821;SDS011;36794;51.212;6.980;2024-01-15T11:52:12;11.55;;;3.45;;
50821;SDS011;36794;51.212;6.980;2024-01-15T11:54:41;7.60;;;3.43;;
50821;SDS011;36794;51.212;6.980;2024-01-15T11:57:09;7.83;;;3.40;;
50821;SDS011;36794;51.212;6.980;2024-01-15T11:59:35;9.97;;;3.10;;
50821;SDS011;36794;51.212;6.980;2024-01-15T12:02:02;8.77;;;3.37;;
50821;SDS011;36794;51.212;6.980;2024-01-15T12:04:28;13.07;;;3.67;;
50821;SDS011;36794;51.212;6.980;2024-01-15T12:06:54;11.13;;;3.57;;
50821;SDS011;36794;51.212;6.980;2024-01-15T12:09:20;7.13;;;3.40;;
50821;SDS011;36794;51.212;6.980;2024-01-15T12:11:47;13.40;;;4.77;;
50821;SDS011;36794;51.212;6.980;2024-01-15T12:14:14;5.37;;;3.20;;
50821;SDS011;36794;51.212;6.980;2024-01-15T12:16:41;8.03;;;4.03;;
50821;SDS011;36794;51.212;6.980;2024-01-15T12:19:07;9.87;;;4.60;;
50821;SDS011;36794;51.212;6.980;2024-01-15T12:21:33;10.17;;;3.87;;
50821;SDS011;36794;51.212;6.980;2024-01-15T12:23:59;8.57;;;3.63;;
50821;SDS011;36794;51.212;6.980;2024-01-15T12:26:24;7.27;;;3.97;;
50821;SDS011;36794;51.212;6.980;2024-01-15T12:28:50;11.33;;;4.10;;
50821;SDS011;36794;51.212;6.980;2024-01-15T12:31:16;8.17;;;3.53;;
50821;SDS011;36794;51.212;6.980;2024-01-15T12:33:43;7.30;;;3.80;;
50821;SDS011;36794;51.212;6.980;2024-01-15T12:36:08;8.27;;;4.43;;
50821;SDS011;36794;51.212;6.980;2024-01-15T12:38:34;11.67;;;4.40;;
50821;SDS011;36794;51.212;6.980;2024-01-15T12:41:00;11.27;;;4.13;;
50821;SDS011;36794;51.212;6.980;2024-01-15T12:43:26;8.93;;;4.30;;
50821;SDS011;36794;51.212;6.980;2024-01-15T12:45:52;6.80;;;4.63;;
50821;SDS011;36794;51.212;6.980;2024-01-15T12:48:18;10.13;;;5.30;;
50821;SDS011;36794;51.212;6.980;2024-01-15T12:50:44;11.23;;;5.07;;
50821;SDS011;36794;51.212;6.980;2024-01-15T12:53:12;9.70;;;5.00;;
50821;SDS011;36794;51.212;6.980;2024-01-15T12:55:38;15.40;;;5.90;;
50821;SDS011;36794;51.212;6.980;2024-01-15T12:58:04;10.80;;;5.43;;
50821;SDS011;36794;51.212;6.980;2024-01-15T13:00:30;10.43;;;6.40;;
50821;SDS011;36794;51.212;6.980;2024-01-15T13:02:56;9.23;;;6.03;;
50821;SDS011;36794;51.212;6.980;2024-01-15T13:05:22;12.27;;;6.33;;
50821;SDS011;36794;51.212;6.980;2024-01-15T13:07:48;14.17;;;7.03;;
50821;SDS011;36794;51.212;6.980;2024-01-15T13:10:14;12.53;;;7.37;;
50821;SDS011;36794;51.212;6.980;2024-01-15T13:12:40;13.47;;;7.43;;
50821;SDS011;36794;51.212;6.980;2024-01-15T13:15:06;18.07;;;7.77;;
50821;SDS011;36794;51.212;6.980;2024-01-15T13:17:37;14.60;;;8.63;;
50821;SDS011;36794;51.212;6.980;2024-01-15T13:20:03;16.33;;;7.77;;
50821;SDS011;36794;51.212;6.980;2024-01-15T13:22:29;12.17;;;7.13;;
50821;SDS011;36794;51.212;6.980;2024-01-15T13:24:57;11.37;;;7.07;;
50821;SDS011;36794;51.212;6.980;2024-01-15T13:27:23;15.13;;;7.23;;
50821;SDS011;36794;51.212;6.980;2024-01-15T13:29:49;12.27;;;7.33;;
50821;SDS011;36794;51.212;6.980;2024-01-15T13:32:17;10.57;;;7.03;;
50821;SDS011;36794;51.212;6.980;2024-01-15T13:34:45;13.20;;;6.73;;
50821;SDS011;36794;51.212;6.980;2024-01-15T13:37:11;15.33;;;6.00;;
50821;SDS011;36794;51.212;6.980;2024-01-15T13:39:38;11.70;;;6.30;;
50821;SDS011;36794;51.212;6.980;2024-01-15T13:42:03;14.67;;;6.53;;
50821;SDS011;36794;51.212;6.980;2024-01-15T13:44:29;11.77;;;5.90;;
50821;SDS011;36794;51.212;6.980;2024-01-15T13:46:55;9.17;;;5.53;;
50821;SDS011;36794;51.212;6.980;2024-01-15T13:49:22;14.83;;;5.67;;
50821;SDS011;36794;51.212;6.980;2024-01-15T13:51:48;10.00;;;4.50;;
50821;SDS011;36794;51.212;6.980;2024-01-15T13:54:15;9.33;;;4.80;;
50821;SDS011;36794;51.212;6.980;2024-01-15T13:56:40;6.10;;;3.93;;
50821;SDS011;36794;51.212;6.980;2024-01-15T13:59:07;9.70;;;4.40;;
50821;SDS011;36794;51.212;6.980;2024-01-15T14:01:33;7.77;;;3.70;;
50821;SDS011;36794;51.212;6.980;2024-01-15T14:03:59;6.57;;;3.03;;
50821;SDS011;36794;51.212;6.980;2024-01-15T14:06:25;5.80;;;3.30;;
50821;SDS011;36794;51.212;6.980;2024-01-15T14:08:51;10.83;;;3.17;;
50821;SDS011;36794;51.212;6.980;2024-01-15T14:11:17;8.13;;;2.93;;
50821;SDS011;36794;51.212;6.980;2024-01-15T14:13:43;6.43;;;3.00;;
50821;SDS011;36794;51.212;6.980;2024-01-15T14:16:09;4.30;;;3.07;;
50821;SDS011;36794;51.212;6.980;2024-01-15T14:18:36;6.90;;;3.50;;
50821;SDS011;36794;51.212;6.980;2024-01-15T14:21:02;5.60;;;3.00;;
50821;SDS011;36794;51.212;6.980;2024-01-15T14:23:28;4.33;;;2.60;;
50821;SDS011;36794;51.212;6.980;2024-01-15T14:25:55;4.17;;;2.53;;
50821;SDS011;36794;51.212;6.980;2024-01-15T14:28:21;4.67;;;2.00;;
50821;SDS011;36794;51.212;6.980;2024-01-15T14:30:48;3.67;;;2.67;;
50821;SDS011;36794;51.212;6.980;2024-01-15T14:33:14;3.30;;;2.40;;